Main page
METAR-TAF:

METAR-TAF

Airports :

RAF Fairford

Fairford, England

latitude: 51-41N, longitude: 001-47W, elevation: 87 m

Current weather observation

The report was made 33 minutes ago, at 18:55 UTC
Wind 10 kt from the West/Southwest
Temperature 5°C
Humidity 100%
Pressure 1023 hPa
Visibility 10 km or more
Clear sky

METAR: EGVA 291855Z AUTO 25010KT 9999 CLR 05/05 A3020 RMK AO2 SLP232 T00480047 PWINO FZRANO $

Time: 19:28 (19:28 UTC)


TAF: missing

Weather observations and forecasts of more than 4000 airports (METAR and TAF reports).

The available stations are represented by yellow and red dots on the map.

Hover mouse over dot to see the name of the station.

Then click to see weather observations and forecasts.

To change the map : click on the green buttons with a black cross to zoom in, on the green button with a dash to zoom out, or on the green arrows for adjacent maps.


METAR-TAF: